sensor_id;sensor_type;location;lat;lon;timestamp;P1;durP1;ratioP1;P2;durP2;ratioP2
34064;SDS011;20339;49.754;20.158;2023-06-14T00:00:46;5.90;;;5.10;;
34064;SDS011;20339;49.754;20.158;2023-06-14T00:03:37;6.10;;;5.10;;
34064;SDS011;20339;49.754;20.158;2023-06-14T00:06:08;7.70;;;5.50;;
34064;SDS011;20339;49.754;20.158;2023-06-14T00:08:40;7.00;;;5.00;;
34064;SDS011;20339;49.754;20.158;2023-06-14T00:11:13;6.00;;;5.10;;
34064;SDS011;20339;49.754;20.158;2023-06-14T00:13:45;6.70;;;5.50;;
34064;SDS011;20339;49.754;20.158;2023-06-14T00:16:16;6.90;;;5.40;;
34064;SDS011;20339;49.754;20.158;2023-06-14T00:18:49;9.60;;;6.00;;
34064;SDS011;20339;49.754;20.158;2023-06-14T00:21:23;7.10;;;5.60;;
34064;SDS011;20339;49.754;20.158;2023-06-14T00:23:58;8.40;;;5.60;;
34064;SDS011;20339;49.754;20.158;2023-06-14T00:26:33;7.80;;;5.60;;
34064;SDS011;20339;49.754;20.158;2023-06-14T00:29:04;7.40;;;5.80;;
34064;SDS011;20339;49.754;20.158;2023-06-14T00:31:36;7.20;;;5.40;;
34064;SDS011;20339;49.754;20.158;2023-06-14T00:34:07;7.30;;;5.30;;
34064;SDS011;20339;49.754;20.158;2023-06-14T00:36:40;7.10;;;5.60;;
34064;SDS011;20339;49.754;20.158;2023-06-14T00:39:12;9.80;;;5.40;;
34064;SDS011;20339;49.754;20.158;2023-06-14T00:41:43;7.20;;;5.30;;
34064;SDS011;20339;49.754;20.158;2023-06-14T00:44:17;7.20;;;5.70;;
34064;SDS011;20339;49.754;20.158;2023-06-14T00:46:49;7.20;;;5.40;;
34064;SDS011;20339;49.754;20.158;2023-06-14T00:49:21;6.70;;;5.20;;
34064;SDS011;20339;49.754;20.158;2023-06-14T00:51:54;8.00;;;5.80;;
34064;SDS011;20339;49.754;20.158;2023-06-14T00:54:26;6.20;;;5.30;;
34064;SDS011;20339;49.754;20.158;2023-06-14T00:56:57;6.70;;;5.30;;
34064;SDS011;20339;49.754;20.158;2023-06-14T00:59:31;6.20;;;5.10;;
34064;SDS011;20339;49.754;20.158;2023-06-14T01:02:05;5.70;;;5.20;;
34064;SDS011;20339;49.754;20.158;2023-06-14T01:04:38;6.80;;;5.70;;
34064;SDS011;20339;49.754;20.158;2023-06-14T01:07:15;6.90;;;5.60;;
34064;SDS011;20339;49.754;20.158;2023-06-14T01:09:58;7.30;;;5.60;;
34064;SDS011;20339;49.754;20.158;2023-06-14T01:12:44;7.40;;;5.60;;
34064;SDS011;20339;49.754;20.158;2023-06-14T01:15:20;7.60;;;5.50;;
34064;SDS011;20339;49.754;20.158;2023-06-14T01:17:52;6.50;;;5.40;;
34064;SDS011;20339;49.754;20.158;2023-06-14T01:20:31;7.60;;;6.20;;
34064;SDS011;20339;49.754;20.158;2023-06-14T01:23:05;7.70;;;6.20;;
34064;SDS011;20339;49.754;20.158;2023-06-14T01:25:41;8.70;;;6.90;;
34064;SDS011;20339;49.754;20.158;2023-06-14T01:28:13;8.30;;;6.00;;
34064;SDS011;20339;49.754;20.158;2023-06-14T01:30:47;8.00;;;6.20;;
34064;SDS011;20339;49.754;20.158;2023-06-14T01:33:24;6.80;;;5.80;;
34064;SDS011;20339;49.754;20.158;2023-06-14T01:35:57;8.60;;;6.60;;
34064;SDS011;20339;49.754;20.158;2023-06-14T01:38:30;8.40;;;6.30;;
34064;SDS011;20339;49.754;20.158;2023-06-14T01:41:02;6.70;;;5.50;;
34064;SDS011;20339;49.754;20.158;2023-06-14T01:43:35;6.60;;;5.60;;
34064;SDS011;20339;49.754;20.158;2023-06-14T01:46:10;7.50;;;5.90;;
34064;SDS011;20339;49.754;20.158;2023-06-14T01:48:42;7.80;;;6.00;;
34064;SDS011;20339;49.754;20.158;2023-06-14T01:51:14;8.70;;;5.80;;
34064;SDS011;20339;49.754;20.158;2023-06-14T01:53:48;6.20;;;5.30;;
34064;SDS011;20339;49.754;20.158;2023-06-14T01:56:19;7.90;;;5.90;;
34064;SDS011;20339;49.754;20.158;2023-06-14T01:58:52;7.50;;;5.90;;
34064;SDS011;20339;49.754;20.158;2023-06-14T02:01:25;8.10;;;6.20;;
34064;SDS011;20339;49.754;20.158;2023-06-14T02:04:02;7.70;;;5.90;;
34064;SDS011;20339;49.754;20.158;2023-06-14T02:06:33;7.90;;;6.00;;
34064;SDS011;20339;49.754;20.158;2023-06-14T02:09:09;7.20;;;5.60;;
34064;SDS011;20339;49.754;20.158;2023-06-14T02:11:43;6.80;;;5.80;;
34064;SDS011;20339;49.754;20.158;2023-06-14T02:14:15;6.10;;;5.50;;
34064;SDS011;20339;49.754;20.158;2023-06-14T02:16:46;6.80;;;5.80;;
34064;SDS011;20339;49.754;20.158;2023-06-14T02:19:20;7.70;;;6.00;;
34064;SDS011;20339;49.754;20.158;2023-06-14T02:21:54;7.20;;;6.10;;
34064;SDS011;20339;49.754;20.158;2023-06-14T02:24:29;7.10;;;6.10;;
34064;SDS011;20339;49.754;20.158;2023-06-14T02:27:04;11.40;;;5.80;;
34064;SDS011;20339;49.754;20.158;2023-06-14T02:29:36;8.80;;;6.60;;
34064;SDS011;20339;49.754;20.158;2023-06-14T02:32:09;8.40;;;6.30;;
34064;SDS011;20339;49.754;20.158;2023-06-14T02:34:40;8.60;;;7.10;;
34064;SDS011;20339;49.754;20.158;2023-06-14T02:37:20;7.50;;;6.40;;
34064;SDS011;20339;49.754;20.158;2023-06-14T02:39:54;9.20;;;6.60;;
34064;SDS011;20339;49.754;20.158;2023-06-14T02:42:28;8.50;;;6.30;;
34064;SDS011;20339;49.754;20.158;2023-06-14T02:44:59;8.40;;;6.10;;
34064;SDS011;20339;49.754;20.158;2023-06-14T02:47:34;7.50;;;6.10;;
34064;SDS011;20339;49.754;20.158;2023-06-14T02:50:07;6.70;;;5.20;;
34064;SDS011;20339;49.754;20.158;2023-06-14T02:52:39;7.20;;;6.10;;
34064;SDS011;20339;49.754;20.158;2023-06-14T02:55:12;7.30;;;5.50;;
34064;SDS011;20339;49.754;20.158;2023-06-14T02:57:44;6.90;;;5.20;;
34064;SDS011;20339;49.754;20.158;2023-06-14T03:00:18;7.00;;;5.40;;
34064;SDS011;20339;49.754;20.158;2023-06-14T03:02:51;6.40;;;5.70;;
34064;SDS011;20339;49.754;20.158;2023-06-14T03:05:23;7.60;;;5.40;;
34064;SDS011;20339;49.754;20.158;2023-06-14T03:07:59;6.70;;;5.40;;
34064;SDS011;20339;49.754;20.158;2023-06-14T03:10:30;8.70;;;6.40;;
34064;SDS011;20339;49.754;20.158;2023-06-14T03:13:02;7.70;;;6.10;;
34064;SDS011;20339;49.754;20.158;2023-06-14T03:15:33;7.40;;;5.80;;
34064;SDS011;20339;49.754;20.158;2023-06-14T03:18:05;8.00;;;6.10;;
34064;SDS011;20339;49.754;20.158;2023-06-14T03:20:40;8.10;;;5.80;;
34064;SDS011;20339;49.754;20.158;2023-06-14T03:23:19;6.40;;;5.50;;
34064;SDS011;20339;49.754;20.158;2023-06-14T03:25:53;7.50;;;5.90;;
34064;SDS011;20339;49.754;20.158;2023-06-14T03:28:25;8.00;;;5.60;;
34064;SDS011;20339;49.754;20.158;2023-06-14T03:30:57;7.50;;;5.70;;
34064;SDS011;20339;49.754;20.158;2023-06-14T03:33:31;8.60;;;6.60;;
34064;SDS011;20339;49.754;20.158;2023-06-14T03:36:05;9.20;;;6.80;;
34064;SDS011;20339;49.754;20.158;2023-06-14T03:38:36;8.70;;;6.20;;
34064;SDS011;20339;49.754;20.158;2023-06-14T03:41:08;7.80;;;6.10;;
34064;SDS011;20339;49.754;20.158;2023-06-14T03:43:40;8.80;;;6.80;;
34064;SDS011;20339;49.754;20.158;2023-06-14T03:46:12;10.20;;;7.50;;
34064;SDS011;20339;49.754;20.158;2023-06-14T03:48:44;8.00;;;6.50;;
34064;SDS011;20339;49.754;20.158;2023-06-14T03:51:18;9.10;;;6.90;;
34064;SDS011;20339;49.754;20.158;2023-06-14T03:53:50;8.50;;;6.90;;
34064;SDS011;20339;49.754;20.158;2023-06-14T03:56:24;9.80;;;7.00;;
34064;SDS011;20339;49.754;20.158;2023-06-14T03:58:56;9.20;;;7.10;;
34064;SDS011;20339;49.754;20.158;2023-06-14T04:01:30;10.10;;;7.10;;
34064;SDS011;20339;49.754;20.158;2023-06-14T04:04:02;10.60;;;7.50;;
34064;SDS011;20339;49.754;20.158;2023-06-14T04:06:34;10.50;;;7.10;;
34064;SDS011;20339;49.754;20.158;2023-06-14T04:09:08;10.70;;;7.80;;
34064;SDS011;20339;49.754;20.158;2023-06-14T04:11:40;11.70;;;7.80;;
34064;SDS011;20339;49.754;20.158;2023-06-14T04:14:12;10.70;;;7.50;;
34064;SDS011;20339;49.754;20.158;2023-06-14T04:16:44;10.70;;;8.20;;
34064;SDS011;20339;49.754;20.158;2023-06-14T04:19:16;10.20;;;7.60;;
34064;SDS011;20339;49.754;20.158;2023-06-14T04:21:47;12.10;;;8.10;;
34064;SDS011;20339;49.754;20.158;2023-06-14T04:24:18;10.60;;;8.00;;
34064;SDS011;20339;49.754;20.158;2023-06-14T04:26:54;9.20;;;7.60;;
34064;SDS011;20339;49.754;20.158;2023-06-14T04:29:29;11.60;;;7.80;;
34064;SDS011;20339;49.754;20.158;2023-06-14T04:32:01;11.00;;;7.80;;
34064;SDS011;20339;49.754;20.158;2023-06-14T04:34:33;10.40;;;7.90;;
34064;SDS011;20339;49.754;20.158;2023-06-14T04:37:05;10.70;;;8.60;;
34064;SDS011;20339;49.754;20.158;2023-06-14T04:39:37;10.30;;;8.30;;
34064;SDS011;20339;49.754;20.158;2023-06-14T04:42:10;14.40;;;10.30;;
34064;SDS011;20339;49.754;20.158;2023-06-14T04:44:43;16.80;;;12.10;;
34064;SDS011;20339;49.754;20.158;2023-06-14T04:47:15;20.60;;;13.40;;
34064;SDS011;20339;49.754;20.158;2023-06-14T04:49:47;17.50;;;12.70;;
34064;SDS011;20339;49.754;20.158;2023-06-14T04:52:22;14.50;;;11.10;;
34064;SDS011;20339;49.754;20.158;2023-06-14T04:54:58;13.40;;;9.70;;
34064;SDS011;20339;49.754;20.158;2023-06-14T04:57:30;12.30;;;9.20;;
34064;SDS011;20339;49.754;20.158;2023-06-14T05:00:03;12.40;;;9.20;;
34064;SDS011;20339;49.754;20.158;2023-06-14T05:02:39;12.00;;;9.60;;
34064;SDS011;20339;49.754;20.158;2023-06-14T05:05:15;12.30;;;9.80;;
34064;SDS011;20339;49.754;20.158;2023-06-14T05:07:51;12.30;;;9.90;;
34064;SDS011;20339;49.754;20.158;2023-06-14T05:10:24;12.50;;;10.00;;
34064;SDS011;20339;49.754;20.158;2023-06-14T05:12:55;11.40;;;9.00;;
34064;SDS011;20339;49.754;20.158;2023-06-14T05:15:27;12.10;;;8.30;;
34064;SDS011;20339;49.754;20.158;2023-06-14T05:17:58;10.10;;;7.60;;
34064;SDS011;20339;49.754;20.158;2023-06-14T05:20:31;10.10;;;8.20;;
34064;SDS011;20339;49.754;20.158;2023-06-14T05:23:04;11.20;;;8.80;;
34064;SDS011;20339;49.754;20.158;2023-06-14T05:25:36;12.10;;;9.70;;
34064;SDS011;20339;49.754;20.158;2023-06-14T05:28:10;12.20;;;9.30;;
34064;SDS011;20339;49.754;20.158;2023-06-14T05:30:41;13.20;;;9.20;;
34064;SDS011;20339;49.754;20.158;2023-06-14T05:33:13;11.60;;;9.00;;
34064;SDS011;20339;49.754;20.158;2023-06-14T05:35:45;15.10;;;8.70;;
34064;SDS011;20339;49.754;20.158;2023-06-14T05:38:16;12.90;;;8.80;;
34064;SDS011;20339;49.754;20.158;2023-06-14T05:40:48;12.10;;;9.40;;
34064;SDS011;20339;49.754;20.158;2023-06-14T05:43:20;12.90;;;9.90;;
34064;SDS011;20339;49.754;20.158;2023-06-14T05:45:52;12.10;;;8.50;;
34064;SDS011;20339;49.754;20.158;2023-06-14T05:48:24;10.70;;;7.80;;
34064;SDS011;20339;49.754;20.158;2023-06-14T05:50:56;9.70;;;7.90;;
34064;SDS011;20339;49.754;20.158;2023-06-14T05:53:31;9.80;;;7.40;;
34064;SDS011;20339;49.754;20.158;2023-06-14T05:56:02;8.70;;;7.40;;
34064;SDS011;20339;49.754;20.158;2023-06-14T05:58:34;9.30;;;8.20;;
34064;SDS011;20339;49.754;20.158;2023-06-14T06:01:06;8.80;;;7.50;;
34064;SDS011;20339;49.754;20.158;2023-06-14T06:03:44;8.60;;;7.30;;
34064;SDS011;20339;49.754;20.158;2023-06-14T06:06:17;10.90;;;7.60;;
34064;SDS011;20339;49.754;20.158;2023-06-14T06:08:49;11.00;;;7.30;;
34064;SDS011;20339;49.754;20.158;2023-06-14T06:11:21;9.90;;;7.10;;
34064;SDS011;20339;49.754;20.158;2023-06-14T06:13:52;11.30;;;7.80;;
34064;SDS011;20339;49.754;20.158;2023-06-14T06:16:24;9.10;;;7.40;;
34064;SDS011;20339;49.754;20.158;2023-06-14T06:18:55;9.30;;;7.30;;
34064;SDS011;20339;49.754;20.158;2023-06-14T06:21:27;10.00;;;7.70;;
34064;SDS011;20339;49.754;20.158;2023-06-14T06:23:58;10.50;;;8.50;;
34064;SDS011;20339;49.754;20.158;2023-06-14T06:26:31;9.40;;;7.50;;
34064;SDS011;20339;49.754;20.158;2023-06-14T06:29:03;12.00;;;8.20;;
34064;SDS011;20339;49.754;20.158;2023-06-14T06:31:34;10.60;;;7.70;;
34064;SDS011;20339;49.754;20.158;2023-06-14T06:34:06;12.70;;;8.50;;
34064;SDS011;20339;49.754;20.158;2023-06-14T06:36:40;11.20;;;9.10;;
34064;SDS011;20339;49.754;20.158;2023-06-14T06:39:12;10.60;;;8.40;;
34064;SDS011;20339;49.754;20.158;2023-06-14T06:41:46;10.90;;;8.60;;
34064;SDS011;20339;49.754;20.158;2023-06-14T06:44:18;11.90;;;9.20;;
34064;SDS011;20339;49.754;20.158;2023-06-14T06:46:49;13.40;;;10.10;;
34064;SDS011;20339;49.754;20.158;2023-06-14T06:49:21;12.80;;;10.00;;
34064;SDS011;20339;49.754;20.158;2023-06-14T06:52:02;12.30;;;9.50;;
34064;SDS011;20339;49.754;20.158;2023-06-14T06:54:38;14.40;;;10.10;;
34064;SDS011;20339;49.754;20.158;2023-06-14T06:57:12;12.90;;;9.60;;
34064;SDS011;20339;49.754;20.158;2023-06-14T06:59:44;13.50;;;10.80;;
34064;SDS011;20339;49.754;20.158;2023-06-14T07:02:16;14.30;;;10.30;;
34064;SDS011;20339;49.754;20.158;2023-06-14T07:04:47;12.80;;;9.90;;
34064;SDS011;20339;49.754;20.158;2023-06-14T07:07:20;12.90;;;10.20;;
34064;SDS011;20339;49.754;20.158;2023-06-14T07:09:51;14.30;;;10.80;;
34064;SDS011;20339;49.754;20.158;2023-06-14T07:12:25;13.90;;;10.10;;
34064;SDS011;20339;49.754;20.158;2023-06-14T07:15:02;12.90;;;10.00;;
34064;SDS011;20339;49.754;20.158;2023-06-14T07:17:35;9.30;;;7.70;;
34064;SDS011;20339;49.754;20.158;2023-06-14T07:20:09;9.00;;;6.90;;
34064;SDS011;20339;49.754;20.158;2023-06-14T07:22:42;9.70;;;5.90;;
34064;SDS011;20339;49.754;20.158;2023-06-14T07:25:23;7.10;;;5.70;;
34064;SDS011;20339;49.754;20.158;2023-06-14T07:27:55;8.20;;;5.60;;
34064;SDS011;20339;49.754;20.158;2023-06-14T07:30:26;10.10;;;6.50;;
34064;SDS011;20339;49.754;20.158;2023-06-14T07:32:58;7.20;;;5.30;;
34064;SDS011;20339;49.754;20.158;2023-06-14T07:35:29;7.80;;;5.90;;
34064;SDS011;20339;49.754;20.158;2023-06-14T07:38:01;7.60;;;5.90;;
34064;SDS011;20339;49.754;20.158;2023-06-14T07:40:33;9.40;;;6.10;;
34064;SDS011;20339;49.754;20.158;2023-06-14T07:43:04;6.90;;;5.20;;
34064;SDS011;20339;49.754;20.158;2023-06-14T07:45:35;7.40;;;5.90;;
34064;SDS011;20339;49.754;20.158;2023-06-14T07:48:07;9.40;;;6.20;;
34064;SDS011;20339;49.754;20.158;2023-06-14T07:50:38;9.50;;;6.00;;
34064;SDS011;20339;49.754;20.158;2023-06-14T07:53:10;7.40;;;5.60;;
34064;SDS011;20339;49.754;20.158;2023-06-14T07:55:42;6.50;;;5.10;;
34064;SDS011;20339;49.754;20.158;2023-06-14T07:58:15;7.30;;;5.40;;
34064;SDS011;20339;49.754;20.158;2023-06-14T08:00:51;8.00;;;5.90;;
34064;SDS011;20339;49.754;20.158;2023-06-14T08:03:23;8.70;;;5.90;;
34064;SDS011;20339;49.754;20.158;2023-06-14T08:05:55;8.40;;;6.60;;
34064;SDS011;20339;49.754;20.158;2023-06-14T08:08:26;10.50;;;8.40;;
34064;SDS011;20339;49.754;20.158;2023-06-14T08:10:58;10.60;;;8.40;;
34064;SDS011;20339;49.754;20.158;2023-06-14T08:13:30;10.60;;;6.70;;
34064;SDS011;20339;49.754;20.158;2023-06-14T08:16:02;10.00;;;7.60;;
34064;SDS011;20339;49.754;20.158;2023-06-14T08:18:34;10.10;;;7.70;;
34064;SDS011;20339;49.754;20.158;2023-06-14T08:21:06;10.30;;;7.40;;
34064;SDS011;20339;49.754;20.158;2023-06-14T08:23:38;9.60;;;7.70;;
34064;SDS011;20339;49.754;20.158;2023-06-14T08:26:11;10.50;;;7.70;;
34064;SDS011;20339;49.754;20.158;2023-06-14T08:28:42;9.90;;;7.60;;
34064;SDS011;20339;49.754;20.158;2023-06-14T08:31:14;10.70;;;8.20;;
34064;SDS011;20339;49.754;20.158;2023-06-14T08:33:45;13.90;;;12.00;;
34064;SDS011;20339;49.754;20.158;2023-06-14T08:36:19;8.90;;;7.90;;
34064;SDS011;20339;49.754;20.158;2023-06-14T08:38:51;11.80;;;10.10;;
34064;SDS011;20339;49.754;20.158;2023-06-14T08:41:22;10.20;;;8.00;;
34064;SDS011;20339;49.754;20.158;2023-06-14T08:44:00;9.30;;;7.30;;
34064;SDS011;20339;49.754;20.158;2023-06-14T08:46:32;25.00;;;20.30;;
34064;SDS011;20339;49.754;20.158;2023-06-14T08:49:06;9.30;;;7.50;;
34064;SDS011;20339;49.754;20.158;2023-06-14T08:51:40;6.90;;;6.20;;
34064;SDS011;20339;49.754;20.158;2023-06-14T08:54:12;5.80;;;5.20;;
34064;SDS011;20339;49.754;20.158;2023-06-14T08:56:50;18.40;;;16.60;;
34064;SDS011;20339;49.754;20.158;2023-06-14T08:59:26;10.20;;;8.70;;
34064;SDS011;20339;49.754;20.158;2023-06-14T09:01:59;8.20;;;5.90;;
34064;SDS011;20339;49.754;20.158;2023-06-14T09:04:31;8.20;;;6.10;;
34064;SDS011;20339;49.754;20.158;2023-06-14T09:07:04;7.70;;;6.30;;
34064;SDS011;20339;49.754;20.158;2023-06-14T09:09:39;7.00;;;5.90;;
34064;SDS011;20339;49.754;20.158;2023-06-14T09:12:14;6.50;;;5.80;;
34064;SDS011;20339;49.754;20.158;2023-06-14T09:14:46;6.20;;;5.60;;
34064;SDS011;20339;49.754;20.158;2023-06-14T09:17:17;5.90;;;5.30;;
34064;SDS011;20339;49.754;20.158;2023-06-14T09:19:49;6.50;;;5.10;;
34064;SDS011;20339;49.754;20.158;2023-06-14T09:22:20;6.40;;;5.50;;
34064;SDS011;20339;49.754;20.158;2023-06-14T09:24:54;6.70;;;5.80;;
34064;SDS011;20339;49.754;20.158;2023-06-14T09:27:26;6.00;;;5.40;;
34064;SDS011;20339;49.754;20.158;2023-06-14T09:29:58;6.30;;;4.60;;
34064;SDS011;20339;49.754;20.158;2023-06-14T09:32:32;5.10;;;4.60;;
34064;SDS011;20339;49.754;20.158;2023-06-14T09:35:08;5.20;;;4.10;;
34064;SDS011;20339;49.754;20.158;2023-06-14T09:37:40;4.70;;;4.30;;
34064;SDS011;20339;49.754;20.158;2023-06-14T09:40:12;4.60;;;3.80;;
34064;SDS011;20339;49.754;20.158;2023-06-14T09:42:49;3.60;;;3.00;;
34064;SDS011;20339;49.754;20.158;2023-06-14T09:45:21;4.10;;;3.70;;
34064;SDS011;20339;49.754;20.158;2023-06-14T09:47:57;3.90;;;3.50;;
34064;SDS011;20339;49.754;20.158;2023-06-14T09:50:30;4.30;;;3.90;;
34064;SDS011;20339;49.754;20.158;2023-06-14T09:53:06;6.20;;;5.50;;
34064;SDS011;20339;49.754;20.158;2023-06-14T09:55:40;17.60;;;15.70;;
34064;SDS011;20339;49.754;20.158;2023-06-14T09:58:12;10.90;;;9.30;;
34064;SDS011;20339;49.754;20.158;2023-06-14T10:00:46;4.30;;;3.90;;
34064;SDS011;20339;49.754;20.158;2023-06-14T10:03:27;10.50;;;8.40;;
34064;SDS011;20339;49.754;20.158;2023-06-14T10:06:02;4.90;;;4.10;;
34064;SDS011;20339;49.754;20.158;2023-06-14T10:08:38;5.00;;;3.90;;
34064;SDS011;20339;49.754;20.158;2023-06-14T10:11:12;5.60;;;4.10;;
34064;SDS011;20339;49.754;20.158;2023-06-14T10:13:44;5.30;;;4.80;;
34064;SDS011;20339;49.754;20.158;2023-06-14T10:16:19;6.00;;;4.50;;
34064;SDS011;20339;49.754;20.158;2023-06-14T10:18:59;5.30;;;4.60;;
34064;SDS011;20339;49.754;20.158;2023-06-14T10:21:46;5.70;;;4.70;;
34064;SDS011;20339;49.754;20.158;2023-06-14T10:24:27;5.30;;;4.30;;
34064;SDS011;20339;49.754;20.158;2023-06-14T10:27:03;11.10;;;9.20;;
34064;SDS011;20339;49.754;20.158;2023-06-14T10:29:46;7.70;;;6.90;;
34064;SDS011;20339;49.754;20.158;2023-06-14T10:32:34;5.80;;;4.90;;
34064;SDS011;20339;49.754;20.158;2023-06-14T10:35:26;7.50;;;6.70;;
34064;SDS011;20339;49.754;20.158;2023-06-14T10:38:00;6.90;;;6.30;;
34064;SDS011;20339;49.754;20.158;2023-06-14T10:40:41;4.90;;;4.40;;
34064;SDS011;20339;49.754;20.158;2023-06-14T10:43:22;3.70;;;3.00;;
34064;SDS011;20339;49.754;20.158;2023-06-14T10:48:45;2.80;;;2.50;;
34064;SDS011;20339;49.754;20.158;2023-06-14T10:51:17;2.80;;;2.50;;
34064;SDS011;20339;49.754;20.158;2023-06-14T10:53:49;4.10;;;2.60;;
34064;SDS011;20339;49.754;20.158;2023-06-14T10:56:24;3.20;;;2.90;;
34064;SDS011;20339;49.754;20.158;2023-06-14T10:59:01;3.20;;;2.80;;
34064;SDS011;20339;49.754;20.158;2023-06-14T11:01:40;3.70;;;2.90;;
34064;SDS011;20339;49.754;20.158;2023-06-14T11:04:21;3.60;;;3.30;;
34064;SDS011;20339;49.754;20.158;2023-06-14T11:07:05;3.60;;;2.70;;
34064;SDS011;20339;49.754;20.158;2023-06-14T11:10:02;3.70;;;3.10;;
34064;SDS011;20339;49.754;20.158;2023-06-14T11:12:39;4.20;;;3.80;;
34064;SDS011;20339;49.754;20.158;2023-06-14T11:15:16;4.10;;;3.70;;
34064;SDS011;20339;49.754;20.158;2023-06-14T11:17:51;4.50;;;4.10;;
34064;SDS011;20339;49.754;20.158;2023-06-14T11:20:25;6.80;;;4.40;;
34064;SDS011;20339;49.754;20.158;2023-06-14T11:22:59;4.90;;;3.90;;
34064;SDS011;20339;49.754;20.158;2023-06-14T11:25:31;5.80;;;4.50;;
34064;SDS011;20339;49.754;20.158;2023-06-14T11:28:03;5.10;;;4.40;;
34064;SDS011;20339;49.754;20.158;2023-06-14T11:30:35;5.80;;;4.90;;
34064;SDS011;20339;49.754;20.158;2023-06-14T11:33:09;5.30;;;4.60;;
34064;SDS011;20339;49.754;20.158;2023-06-14T11:35:41;4.40;;;3.90;;
34064;SDS011;20339;49.754;20.158;2023-06-14T11:38:13;4.70;;;4.10;;
34064;SDS011;20339;49.754;20.158;2023-06-14T11:40:45;4.30;;;3.90;;
34064;SDS011;20339;49.754;20.158;2023-06-14T11:43:17;5.30;;;3.90;;
34064;SDS011;20339;49.754;20.158;2023-06-14T11:45:49;3.90;;;3.30;;
34064;SDS011;20339;49.754;20.158;2023-06-14T11:48:22;4.00;;;3.60;;
34064;SDS011;20339;49.754;20.158;2023-06-14T11:51:05;3.30;;;2.80;;
34064;SDS011;20339;49.754;20.158;2023-06-14T11:53:36;5.00;;;3.20;;
34064;SDS011;20339;49.754;20.158;2023-06-14T11:56:08;4.10;;;3.00;;
34064;SDS011;20339;49.754;20.158;2023-06-14T11:58:40;5.80;;;3.20;;
34064;SDS011;20339;49.754;20.158;2023-06-14T12:01:16;4.30;;;3.50;;
34064;SDS011;20339;49.754;20.158;2023-06-14T12:03:48;5.40;;;3.60;;
34064;SDS011;20339;49.754;20.158;2023-06-14T12:06:29;4.20;;;3.30;;
34064;SDS011;20339;49.754;20.158;2023-06-14T12:09:07;3.40;;;2.90;;
34064;SDS011;20339;49.754;20.158;2023-06-14T12:11:41;3.80;;;3.50;;
34064;SDS011;20339;49.754;20.158;2023-06-14T12:14:13;4.20;;;3.30;;
34064;SDS011;20339;49.754;20.158;2023-06-14T12:16:44;4.10;;;3.10;;
34064;SDS011;20339;49.754;20.158;2023-06-14T12:19:16;4.80;;;3.30;;
34064;SDS011;20339;49.754;20.158;2023-06-14T12:21:48;4.30;;;3.10;;
34064;SDS011;20339;49.754;20.158;2023-06-14T12:24:20;5.30;;;3.40;;
34064;SDS011;20339;49.754;20.158;2023-06-14T12:26:58;5.50;;;3.40;;
34064;SDS011;20339;49.754;20.158;2023-06-14T12:29:31;5.80;;;3.90;;
34064;SDS011;20339;49.754;20.158;2023-06-14T12:32:03;3.10;;;2.80;;
34064;SDS011;20339;49.754;20.158;2023-06-14T12:34:35;3.30;;;3.00;;
34064;SDS011;20339;49.754;20.158;2023-06-14T12:37:09;3.70;;;3.00;;
34064;SDS011;20339;49.754;20.158;2023-06-14T12:39:42;4.80;;;3.40;;
34064;SDS011;20339;49.754;20.158;2023-06-14T12:42:16;4.50;;;3.20;;
34064;SDS011;20339;49.754;20.158;2023-06-14T12:44:51;3.80;;;2.90;;
34064;SDS011;20339;49.754;20.158;2023-06-14T12:47:25;3.70;;;3.00;;
34064;SDS011;20339;49.754;20.158;2023-06-14T12:49:57;3.90;;;2.80;;
34064;SDS011;20339;49.754;20.158;2023-06-14T12:52:28;3.30;;;2.50;;
34064;SDS011;20339;49.754;20.158;2023-06-14T12:54:59;3.40;;;2.40;;
34064;SDS011;20339;49.754;20.158;2023-06-14T12:57:31;4.40;;;2.90;;
34064;SDS011;20339;49.754;20.158;2023-06-14T13:00:06;3.60;;;2.90;;
34064;SDS011;20339;49.754;20.158;2023-06-14T13:02:41;4.40;;;3.30;;
34064;SDS011;20339;49.754;20.158;2023-06-14T13:05:15;3.00;;;2.70;;
34064;SDS011;20339;49.754;20.158;2023-06-14T13:07:47;2.90;;;2.50;;
34064;SDS011;20339;49.754;20.158;2023-06-14T13:10:18;4.50;;;3.10;;
34064;SDS011;20339;49.754;20.158;2023-06-14T13:12:49;8.40;;;5.40;;
34064;SDS011;20339;49.754;20.158;2023-06-14T13:15:21;3.60;;;3.10;;
34064;SDS011;20339;49.754;20.158;2023-06-14T13:17:54;4.60;;;2.80;;
34064;SDS011;20339;49.754;20.158;2023-06-14T13:20:26;4.30;;;2.90;;
34064;SDS011;20339;49.754;20.158;2023-06-14T13:23:00;3.80;;;3.10;;
34064;SDS011;20339;49.754;20.158;2023-06-14T13:25:35;4.70;;;3.40;;
34064;SDS011;20339;49.754;20.158;2023-06-14T13:28:08;3.60;;;3.00;;
34064;SDS011;20339;49.754;20.158;2023-06-14T13:30:40;5.00;;;3.90;;
34064;SDS011;20339;49.754;20.158;2023-06-14T13:33:12;4.00;;;3.20;;
34064;SDS011;20339;49.754;20.158;2023-06-14T13:35:49;3.60;;;3.30;;
34064;SDS011;20339;49.754;20.158;2023-06-14T13:38:21;4.80;;;3.30;;
34064;SDS011;20339;49.754;20.158;2023-06-14T13:40:52;4.20;;;3.40;;
34064;SDS011;20339;49.754;20.158;2023-06-14T13:43:24;5.20;;;3.60;;
34064;SDS011;20339;49.754;20.158;2023-06-14T13:45:58;3.70;;;3.30;;
34064;SDS011;20339;49.754;20.158;2023-06-14T13:48:32;4.10;;;3.50;;
34064;SDS011;20339;49.754;20.158;2023-06-14T13:51:05;4.30;;;3.50;;
34064;SDS011;20339;49.754;20.158;2023-06-14T13:53:36;4.20;;;3.40;;
34064;SDS011;20339;49.754;20.158;2023-06-14T13:56:08;4.40;;;4.00;;
34064;SDS011;20339;49.754;20.158;2023-06-14T13:58:47;6.10;;;4.30;;
34064;SDS011;20339;49.754;20.158;2023-06-14T14:01:21;5.30;;;4.20;;
34064;SDS011;20339;49.754;20.158;2023-06-14T14:03:57;5.40;;;4.10;;
34064;SDS011;20339;49.754;20.158;2023-06-14T14:06:30;6.00;;;4.30;;
34064;SDS011;20339;49.754;20.158;2023-06-14T14:09:04;5.50;;;4.00;;
34064;SDS011;20339;49.754;20.158;2023-06-14T14:11:42;6.10;;;4.10;;
34064;SDS011;20339;49.754;20.158;2023-06-14T14:14:14;7.00;;;3.70;;
34064;SDS011;20339;49.754;20.158;2023-06-14T14:16:49;5.60;;;3.80;;
34064;SDS011;20339;49.754;20.158;2023-06-14T14:19:22;4.10;;;3.70;;
34064;SDS011;20339;49.754;20.158;2023-06-14T14:21:56;4.30;;;3.90;;
34064;SDS011;20339;49.754;20.158;2023-06-14T14:24:29;6.70;;;4.60;;
34064;SDS011;20339;49.754;20.158;2023-06-14T14:27:01;6.30;;;4.50;;
34064;SDS011;20339;49.754;20.158;2023-06-14T14:29:42;5.00;;;4.10;;
34064;SDS011;20339;49.754;20.158;2023-06-14T14:32:15;5.20;;;4.70;;
34064;SDS011;20339;49.754;20.158;2023-06-14T14:34:50;5.30;;;4.70;;
34064;SDS011;20339;49.754;20.158;2023-06-14T14:37:24;5.50;;;4.20;;
34064;SDS011;20339;49.754;20.158;2023-06-14T14:40:02;5.60;;;4.70;;
34064;SDS011;20339;49.754;20.158;2023-06-14T14:42:38;6.40;;;5.10;;
34064;SDS011;20339;49.754;20.158;2023-06-14T14:45:10;5.10;;;4.40;;
34064;SDS011;20339;49.754;20.158;2023-06-14T14:47:44;5.80;;;5.20;;
34064;SDS011;20339;49.754;20.158;2023-06-14T14:50:22;5.10;;;4.50;;
34064;SDS011;20339;49.754;20.158;2023-06-14T14:53:03;5.80;;;5.00;;
34064;SDS011;20339;49.754;20.158;2023-06-14T14:55:40;5.40;;;4.80;;
34064;SDS011;20339;49.754;20.158;2023-06-14T14:58:24;6.60;;;5.50;;
34064;SDS011;20339;49.754;20.158;2023-06-14T15:00:56;6.50;;;5.70;;
34064;SDS011;20339;49.754;20.158;2023-06-14T15:03:30;7.30;;;5.60;;
34064;SDS011;20339;49.754;20.158;2023-06-14T15:06:04;8.60;;;5.70;;
34064;SDS011;20339;49.754;20.158;2023-06-14T15:08:38;7.70;;;5.10;;
34064;SDS011;20339;49.754;20.158;2023-06-14T15:11:17;6.10;;;5.20;;